Time;durP1;ratioP1;P1;durP2;ratioP2;P2;SDS_P1;SDS_P2;PMS_P1;PMS_P2;Temp;Humidity;BMP_temperature;BMP_pressure;BME280_temperature;BME280_humidity;BME280_pressure;Samples;Min_cycle;Max_cycle;Signal;HPM_P1;HPM_P2
2022/03/13 00:00:59;;;;;;;6.90;4.10;;;;;;;-0.91;52.95;101182.21;104724;1274;72759;-68
2022/03/13 00:03:28;;;;;;;7.20;4.50;;;;;;;-0.93;52.84;101178.52;104861;1274;62022;-66
2022/03/13 00:05:55;;;;;;;12.80;4.70;;;;;;;-0.96;53.07;101174.01;104796;1274;60424;-68
2022/03/13 00:08:32;;;;;;;9.20;4.70;;;;;;;-0.99;53.24;101176.42;104759;1274;74122;-68
2022/03/13 00:11:05;;;;;;;10.80;6.10;;;;;;;-1.02;53.52;101174.17;104563;1274;72420;-67
2022/03/13 00:13:44;;;;;;;8.30;5.10;;;;;;;-1.05;53.71;101175.55;104930;1274;71443;-67
2022/03/13 00:16:31;;;;;;;8.50;4.80;;;;;;;-1.06;53.78;101175.64;104681;1274;60864;-67
2022/03/13 00:18:59;;;;;;;8.50;4.10;;;;;;;-1.07;53.95;101174.33;104693;1273;62475;-66
2022/03/13 00:21:30;;;;;;;9.60;4.20;;;;;;;-1.11;54.09;101174.89;104957;1274;73262;-68
2022/03/13 00:24:22;;;;;;;9.60;4.70;;;;;;;-1.15;54.19;101178.88;105399;1274;69544;-69
2022/03/13 00:26:51;;;;;;;9.00;5.60;;;;;;;-1.18;54.76;101176.35;105552;1274;73226;-67
2022/03/13 00:29:54;;;;;;;11.80;4.90;;;;;;;-1.23;54.67;101177.13;105552;1274;61357;-67
2022/03/13 00:32:20;;;;;;;10.60;4.80;;;;;;;-1.29;54.50;101177.95;104787;1274;60787;-68
2022/03/13 00:34:46;;;;;;;9.00;5.20;;;;;;;-1.33;54.74;101177.54;104872;1274;74109;-68
2022/03/13 00:37:16;;;;;;;5.60;3.50;;;;;;;-1.38;54.67;101175.55;104647;1274;71336;-67
2022/03/13 00:39:46;;;;;;;8.20;4.40;;;;;;;-1.43;54.74;101172.35;104538;1274;72833;-67
2022/03/13 00:42:16;;;;;;;9.90;5.10;;;;;;;-1.47;54.90;101172.39;105110;1274;60462;-67
2022/03/13 00:44:43;;;;;;;6.80;4.40;;;;;;;-1.52;54.91;101169.40;104565;1274;60543;-68
2022/03/13 00:47:13;;;;;;;8.50;5.00;;;;;;;-1.56;55.16;101173.40;104739;1274;74493;-68
2022/03/13 00:49:40;;;;;;;8.50;4.40;;;;;;;-1.60;55.40;101172.25;104734;1274;71485;-68
2022/03/13 00:52:21;;;;;;;4.50;2.50;;;;;;;-1.64;55.50;101176.96;105215;1274;72748;-69
2022/03/13 00:54:48;;;;;;;7.50;3.80;;;;;;;-1.68;55.76;101176.46;105686;1274;61135;-68
2022/03/13 00:57:23;;;;;;;8.60;4.90;;;;;;;-1.71;55.74;101171.44;104761;1274;60578;-68
2022/03/13 00:59:49;;;;;;;;;;;;;;;-1.74;55.98;101169.74;105083;1274;75471;-68
2022/03/13 01:02:19;;;;;;;9.30;4.40;;;;;;;-1.78;56.43;101170.98;104779;1273;60513;-68
2022/03/13 01:04:49;;;;;;;7.70;4.30;;;;;;;-1.82;56.58;101169.45;105502;1274;73030;-69
2022/03/13 01:07:15;;;;;;;7.40;3.60;;;;;;;-1.86;56.62;101167.23;105112;1274;61535;-68
2022/03/13 01:09:42;;;;;;;8.90;4.20;;;;;;;-1.90;56.78;101162.44;105415;1274;60327;-68
2022/03/13 01:12:38;;;;;;;10.90;4.30;;;;;;;-1.93;57.07;101166.43;104904;1274;75051;-69
2022/03/13 01:15:07;;;;;;;;;;;;;;;-1.97;57.69;101166.81;105046;1274;71407;-70
2022/03/13 01:17:43;;;;;;;7.70;4.10;;;;;;;-2.00;57.76;101165.91;104659;1274;73920;-69
2022/03/13 01:20:17;;;;;;;9.10;4.10;;;;;;;-2.03;57.83;101164.17;104834;1274;60994;-68
2022/03/13 01:22:48;;;;;;;7.60;3.80;;;;;;;-2.08;57.85;101161.48;104885;1274;60695;-68
2022/03/13 01:25:15;;;;;;;7.50;4.10;;;;;;;-2.13;57.69;101159.64;104725;1274;74570;-68
2022/03/13 01:27:44;;;;;;;7.30;4.20;;;;;;;-2.16;57.98;101159.35;104498;1274;71052;-69
2022/03/13 01:30:14;;;;;;;9.10;4.70;;;;;;;-2.20;58.16;101154.70;104756;1274;73985;-69
2022/03/13 01:32:44;;;;;;;7.70;4.90;;;;;;;-2.24;58.11;101153.35;104798;1274;61984;-71
2022/03/13 01:35:19;;;;;;;6.10;3.50;;;;;;;-2.29;58.17;101154.25;105668;1274;61736;-68
2022/03/13 01:37:45;;;;;;;8.70;4.60;;;;;;;-2.33;58.34;101147.71;104836;1274;74004;-71
2022/03/13 01:40:19;;;;;;;7.00;4.00;;;;;;;-2.37;58.48;101147.59;105546;1274;71603;-69
2022/03/13 01:43:07;;;;;;;7.50;4.30;;;;;;;-2.41;58.55;101144.70;105719;1274;72765;-68
2022/03/13 01:45:40;;;;;;;9.90;4.60;;;;;;;-2.44;58.79;101141.75;104429;1275;60576;-68
2022/03/13 01:48:07;;;;;;;5.80;3.80;;;;;;;-2.48;59.18;101145.05;104537;1274;60545;-70
2022/03/13 01:50:34;;;;;;;8.40;5.10;;;;;;;-2.49;59.34;101145.81;105521;1274;73048;-69
2022/03/13 01:53:00;;;;;;;8.60;5.30;;;;;;;-2.50;59.57;101146.39;105630;1274;71331;-71
2022/03/13 01:55:27;;;;;;;8.00;4.70;;;;;;;-2.52;59.55;101146.99;105479;1274;72996;-68
2022/03/13 01:57:54;;;;;;;8.40;4.30;;;;;;;-2.54;59.48;101146.07;104743;1274;61353;-68
2022/03/13 02:00:23;;;;;;;8.10;4.30;;;;;;;-2.57;59.44;101142.23;104762;1274;61622;-69
2022/03/13 02:02:54;;;;;;;6.70;3.60;;;;;;;-2.60;59.61;101138.39;104950;1271;74214;-68
2022/03/13 02:05:32;;;;;;;8.50;4.30;;;;;;;-2.59;59.87;101138.68;105743;1271;71409;-69
2022/03/13 02:08:04;;;;;;;6.90;4.20;;;;;;;-2.58;60.06;101139.18;105721;1271;71901;-68
2022/03/13 02:10:40;;;;;;;11.40;5.90;;;;;;;-2.57;60.03;101142.75;105412;1271;61871;-68
2022/03/13 02:13:10;;;;;;;7.10;3.80;;;;;;;-2.59;60.17;101138.85;104731;1271;60428;-69
2022/03/13 02:15:38;;;;;;;9.70;4.40;;;;;;;-2.60;60.75;101135.09;104834;1271;72862;-68
2022/03/13 02:18:06;;;;;;;8.00;3.90;;;;;;;-2.60;61.23;101128.37;105024;1271;71329;-68
2022/03/13 02:20:56;;;;;;;6.80;3.80;;;;;;;-2.62;61.06;101123.29;104939;1271;74150;-67
2022/03/13 02:23:25;;;;;;;9.90;5.10;;;;;;;-2.64;61.19;101122.34;104649;1274;62156;-68
2022/03/13 02:25:56;;;;;;;7.60;4.90;;;;;;;-2.64;61.64;101116.15;105236;1271;61100;-69
2022/03/13 02:28:29;;;;;;;7.70;3.90;;;;;;;-2.66;61.66;101117.60;105696;1271;72963;-68
2022/03/13 02:31:11;;;;;;;10.40;5.80;;;;;;;-2.67;61.60;101116.26;104769;1271;71665;-69
2022/03/13 02:33:41;;;;;;;9.60;5.70;;;;;;;-2.69;61.25;101113.23;105735;1271;74025;-68
2022/03/13 02:36:31;;;;;;;9.20;5.10;;;;;;;-2.72;61.05;101105.25;104738;1271;60791;-69
2022/03/13 02:38:59;;;;;;;8.40;4.50;;;;;;;-2.76;60.70;101104.27;105714;1271;60443;-68
2022/03/13 02:41:29;;;;;;;9.70;4.50;;;;;;;-2.81;60.79;101104.16;105154;1271;74331;-69
2022/03/13 02:43:57;;;;;;;6.80;3.60;;;;;;;-2.85;60.92;101104.91;105711;1271;72368;-69
2022/03/13 02:46:45;;;;;;;6.70;4.40;;;;;;;-2.89;61.28;101099.92;105804;1271;73017;-68
2022/03/13 02:49:20;;;;;;;10.30;4.30;;;;;;;-2.93;61.42;101101.32;105615;1271;60519;-69
2022/03/13 02:51:49;;;;;;;7.60;4.50;;;;;;;-2.94;61.97;101096.72;104830;1271;60334;-70
2022/03/13 02:54:19;;;;;;;14.30;5.40;;;;;;;-2.96;62.09;101098.70;105775;1271;75480;-71
2022/03/13 02:57:07;;;;;;;8.40;4.50;;;;;;;-2.98;61.92;101097.80;105643;1271;71240;-68
2022/03/13 02:59:33;;;;;;;10.90;5.30;;;;;;;-3.02;61.88;101096.58;105720;1271;74734;-69
2022/03/13 03:02:04;;;;;;;10.80;5.70;;;;;;;-3.04;62.16;101098.25;104799;1271;60577;-67
2022/03/13 03:04:34;;;;;;;6.70;4.50;;;;;;;-3.07;62.09;101101.66;105660;1271;60509;-69
2022/03/13 03:07:03;;;;;;;10.90;5.20;;;;;;;-3.10;62.00;101099.42;105333;1271;74165;-67
2022/03/13 03:09:50;;;;;;;8.00;4.10;;;;;;;-3.12;62.06;101105.77;104901;1269;71789;-68
2022/03/13 03:12:19;;;;;;;8.70;4.10;;;;;;;-3.16;62.00;101102.65;105625;1271;72957;-69
2022/03/13 03:14:46;;;;;;;7.20;3.80;;;;;;;-3.17;62.34;101102.05;105783;1271;61863;-70
2022/03/13 03:17:25;;;;;;;8.40;4.20;;;;;;;-3.16;62.22;101106.63;105622;1271;61095;-70
2022/03/13 03:19:54;;;;;;;6.30;3.60;;;;;;;-3.15;62.17;101105.38;105869;1270;75185;-68
2022/03/13 03:22:21;;;;;;;11.10;4.30;;;;;;;-3.16;62.13;101110.78;104825;1271;71833;-70
2022/03/13 03:24:59;;;;;;;9.00;4.30;;;;;;;-3.16;62.15;101107.19;105141;1271;74084;-67
2022/03/13 03:27:25;;;;;;;9.40;3.80;;;;;;;-3.16;62.34;101108.89;105636;1271;61403;-70
2022/03/13 03:29:59;;;;;;;7.60;4.00;;;;;;;-3.16;62.41;101110.45;105631;1271;61612;-68
2022/03/13 03:32:32;;;;;;;9.80;4.60;;;;;;;-3.16;62.55;101105.79;105554;1274;74086;-69
2022/03/13 03:35:02;;;;;;;8.10;4.40;;;;;;;-3.16;62.73;101101.43;105639;1271;72344;-70
2022/03/13 03:37:38;;;;;;;9.40;4.40;;;;;;;-3.16;62.70;101101.79;105721;1271;72985;-69
2022/03/13 03:40:06;;;;;;;6.60;4.30;;;;;;;-3.16;62.75;101099.74;105625;1271;60549;-68
2022/03/13 03:42:35;;;;;;;9.30;4.00;;;;;;;-3.18;62.73;101105.86;105636;1271;60592;-69
2022/03/13 03:45:03;;;;;;;8.80;4.90;;;;;;;-3.20;62.97;101099.77;104872;1271;74288;-68
2022/03/13 03:47:30;;;;;;;10.60;4.10;;;;;;;-3.22;63.36;101099.88;104929;1270;72402;-69
2022/03/13 03:49:57;;;;;;;7.40;3.90;;;;;;;-3.25;63.21;101099.31;105713;1271;72956;-69
2022/03/13 03:52:31;;;;;;;9.60;4.50;;;;;;;-3.29;63.06;101099.29;105606;1271;60451;-68
2022/03/13 03:55:01;;;;;;;9.60;5.00;;;;;;;-3.31;63.33;101097.84;104916;1271;60899;-68
2022/03/13 03:57:28;;;;;;;13.00;5.20;;;;;;;-3.32;63.13;101103.63;104794;1271;75350;-68
2022/03/13 04:00:11;;;;;;;7.10;3.90;;;;;;;-3.35;63.25;101104.63;104784;1271;72083;-69
2022/03/13 04:02:39;;;;;;;8.70;4.50;;;;;;;-3.38;63.24;101102.37;104922;1271;72573;-68
2022/03/13 04:05:07;;;;;;;7.80;3.90;;;;;;;-3.39;63.55;101108.80;104489;1271;63594;-70
2022/03/13 04:07:36;;;;;;;10.20;4.70;;;;;;;-3.41;63.39;101107.52;105609;1271;61507;-69
2022/03/13 04:10:05;;;;;;;9.90;4.80;;;;;;;-3.44;63.20;101109.41;105732;1271;75196;-69
2022/03/13 04:12:34;;;;;;;9.50;5.10;;;;;;;-3.45;63.63;101113.45;105631;1271;71430;-68
2022/03/13 04:15:02;;;;;;;9.00;5.10;;;;;;;-3.48;63.69;101115.97;105681;1271;71937;-68
2022/03/13 04:17:29;;;;;;;7.50;4.60;;;;;;;-3.50;63.65;101114.70;104792;1271;60527;-72
2022/03/13 04:19:59;;;;;;;10.10;5.10;;;;;;;-3.50;64.05;101112.45;104738;1271;60531;-68
2022/03/13 04:22:27;;;;;;;16.10;5.50;;;;;;;-3.51;63.93;101109.56;104922;1271;73232;-70
2022/03/13 04:25:13;;;;;;;;;;;;;;;;;;;;;
2022/03/13 04:27:41;;;;;;;9.60;4.90;;;;;;;-3.55;64.68;101112.19;105712;1271;73292;-68
2022/03/13 04:30:08;;;;;;;12.00;5.50;;;;;;;-3.58;64.45;101106.27;104915;1271;61560;-70
2022/03/13 04:32:35;;;;;;;7.70;4.20;;;;;;;-3.63;64.40;101104.77;104908;1271;60630;-70
2022/03/13 04:35:05;;;;;;;10.20;5.20;;;;;;;-3.64;64.45;101106.94;105663;1271;74408;-71
2022/03/13 04:37:37;;;;;;;7.80;4.00;;;;;;;-3.67;64.60;101109.65;105723;1271;71148;-70
2022/03/13 04:40:24;;;;;;;6.50;3.20;;;;;;;-3.70;64.75;101113.39;105609;1271;72933;-68
2022/03/13 04:42:51;;;;;;;10.10;4.50;;;;;;;-3.72;64.89;101112.45;105687;1271;61659;-68
2022/03/13 04:45:29;;;;;;;;;;;;;;;;;;;;;
2022/03/13 04:48:04;;;;;;;10.10;5.20;;;;;;;-3.76;64.78;101103.47;105047;1271;73928;-68
2022/03/13 04:50:30;;;;;;;7.30;3.60;;;;;;;-3.78;64.55;101104.81;104749;1271;71773;-68
2022/03/13 04:52:57;;;;;;;9.30;4.40;;;;;;;-3.80;64.55;101100.94;105681;1271;72953;-69
2022/03/13 04:55:43;;;;;;;7.60;3.40;;;;;;;-3.81;64.78;101102.34;104625;1271;62512;-69
2022/03/13 04:58:18;;;;;;;5.00;3.00;;;;;;;-3.81;64.70;101100.27;104850;1271;61662;-69
2022/03/13 05:01:18;;;;;;;;;;;;;;;;;;;;;
2022/03/13 05:03:46;;;;;;;7.40;4.10;;;;;;;-3.78;64.59;101098.08;104721;1271;71429;-69
2022/03/13 05:06:38;;;;;;;4.90;3.00;;;;;;;-3.76;64.58;101098.98;104779;1271;72969;-69
2022/03/13 05:09:06;;;;;;;9.70;4.50;;;;;;;-3.72;64.58;101097.77;104752;1271;60375;-68
2022/03/13 05:11:33;;;;;;;7.50;3.50;;;;;;;-3.70;63.96;101100.95;104857;1271;60649;-69
2022/03/13 05:14:00;;;;;;;8.90;3.50;;;;;;;-3.69;63.91;101095.36;104861;1271;74137;-67
2022/03/13 05:16:26;;;;;;;8.20;3.80;;;;;;;-3.67;63.98;101099.61;104999;1271;71310;-68
2022/03/13 05:18:53;;;;;;;8.20;4.30;;;;;;;-3.66;63.84;101100.27;105672;1271;72943;-69
2022/03/13 05:21:20;;;;;;;10.20;4.40;;;;;;;-3.65;63.97;101103.36;104931;1271;60596;-67
2022/03/13 05:23:47;;;;;;;11.50;5.70;;;;;;;-3.65;63.84;101102.30;104907;1271;61919;-70
2022/03/13 05:26:13;;;;;;;7.40;4.00;;;;;;;-3.66;63.82;101105.79;105638;1271;75634;-68
2022/03/13 05:28:43;;;;;;;8.90;4.70;;;;;;;-3.67;63.55;101107.23;104788;1271;71280;-68
2022/03/13 05:31:12;;;;;;;8.00;4.10;;;;;;;-3.69;63.54;101105.92;105768;1271;73970;-69
2022/03/13 05:33:40;;;;;;;7.50;4.70;;;;;;;-3.70;63.79;101104.95;105738;1271;60431;-68
2022/03/13 05:36:11;;;;;;;10.10;4.80;;;;;;;-3.69;63.85;101110.40;104947;1271;62621;-68
2022/03/13 05:38:38;;;;;;;8.60;4.70;;;;;;;-3.66;63.79;101107.89;105246;1271;73117;-68
2022/03/13 05:41:11;;;;;;;7.50;4.10;;;;;;;-3.64;63.42;101106.07;104873;1271;72424;-69
2022/03/13 05:43:42;;;;;;;8.70;3.60;;;;;;;-3.65;63.41;101102.98;104770;1271;72909;-68
2022/03/13 05:46:18;;;;;;;7.30;3.80;;;;;;;-3.64;63.45;101104.84;104693;1271;60433;-68
2022/03/13 05:48:45;;;;;;;10.60;5.30;;;;;;;-3.63;63.62;101106.35;104813;1271;60562;-70
2022/03/13 05:51:11;;;;;;;6.00;3.60;;;;;;;-3.62;63.81;101105.09;104804;1269;75145;-68
2022/03/13 05:53:38;;;;;;;11.60;4.30;;;;;;;-3.61;64.07;101110.91;104799;1271;72404;-69
2022/03/13 05:56:08;;;;;;;8.10;3.90;;;;;;;-3.59;64.23;101109.97;104929;1271;72864;-69
2022/03/13 05:58:35;;;;;;;11.70;4.80;;;;;;;-3.57;64.63;101106.02;105567;1271;60961;-69
2022/03/13 06:01:21;;;;;;;8.20;3.20;;;;;;;-3.53;64.61;101102.75;104773;1271;60472;-68
2022/03/13 06:03:53;;;;;;;7.70;3.90;;;;;;;-3.46;64.66;101109.70;105681;1271;74159;-68
2022/03/13 06:06:20;;;;;;;6.90;3.50;;;;;;;-3.41;64.49;101104.93;105039;1271;71144;-69
2022/03/13 06:08:47;;;;;;;9.50;3.80;;;;;;;-3.34;64.19;101108.73;104768;1271;71957;-69
2022/03/13 06:11:14;;;;;;;10.70;5.20;;;;;;;-3.30;64.03;101109.02;104764;1271;61944;-69
2022/03/13 06:13:40;;;;;;;8.90;4.70;;;;;;;-3.23;63.84;101107.48;105831;1271;61554;-68
2022/03/13 06:16:12;;;;;;;10.00;5.10;;;;;;;-3.11;63.25;101108.09;105624;1271;73846;-73
2022/03/13 06:18:39;;;;;;;13.30;5.40;;;;;;;-2.98;62.64;101114.89;105072;1271;71339;-67
2022/03/13 06:21:18;;;;;;;9.80;4.60;;;;;;;-2.87;62.26;101119.35;104626;1271;72912;-68
2022/03/13 06:23:56;;;;;;;8.20;4.80;;;;;;;-2.75;61.98;101119.27;105774;1271;61759;-69
2022/03/13 06:26:24;;;;;;;11.40;4.40;;;;;;;-2.66;61.60;101117.09;105946;1271;59657;-70
2022/03/13 06:28:51;;;;;;;7.90;3.70;;;;;;;-2.59;61.28;101117.05;106197;1271;74182;-69
2022/03/13 06:31:18;;;;;;;7.30;4.10;;;;;;;-2.52;61.11;101116.68;104800;1271;71287;-71
2022/03/13 06:33:45;;;;;;;10.20;5.80;;;;;;;-2.45;60.94;101116.48;105901;1271;72667;-67
2022/03/13 06:36:12;;;;;;;11.00;5.40;;;;;;;-2.38;61.01;101121.15;104766;1271;60873;-68
2022/03/13 06:38:41;;;;;;;9.30;4.10;;;;;;;-2.32;61.05;101126.22;104808;1271;60472;-69
2022/03/13 06:41:38;;;;;;;8.10;4.50;;;;;;;-2.26;61.10;101128.30;104650;1273;73926;-69
2022/03/13 06:44:04;;;;;;;8.00;3.90;;;;;;;-2.18;61.16;101129.30;104698;1271;72355;-68
2022/03/13 06:46:32;;;;;;;9.70;5.00;;;;;;;-2.11;60.91;101129.90;104669;1271;73930;-68
2022/03/13 06:48:59;;;;;;;14.40;4.90;;;;;;;-2.01;60.75;101127.88;104769;1271;61657;-68
2022/03/13 06:51:26;;;;;;;9.90;5.00;;;;;;;-1.92;60.68;101128.23;105622;1271;60739;-67
2022/03/13 06:53:53;;;;;;;12.00;5.50;;;;;;;-1.82;60.53;101129.77;104701;1271;60466;-68
2022/03/13 06:56:20;;;;;;;7.30;4.70;;;;;;;-1.72;60.34;101129.55;105412;1271;71428;-68
2022/03/13 06:58:49;;;;;;;8.80;5.10;;;;;;;-1.60;60.15;101129.61;104720;1271;72981;-69
2022/03/13 07:01:16;;;;;;;11.40;5.40;;;;;;;-1.49;59.92;101125.33;104849;1271;60728;-69
2022/03/13 07:03:42;;;;;;;11.60;4.80;;;;;;;-1.38;59.68;101129.22;104872;1271;60482;-68
2022/03/13 07:06:10;;;;;;;12.90;5.60;;;;;;;-1.27;59.47;101128.77;104720;1274;72525;-68
2022/03/13 07:08:37;;;;;;;10.90;5.90;;;;;;;-1.16;59.44;101126.77;105452;1271;72413;-67
2022/03/13 07:11:09;;;;;;;15.10;6.20;;;;;;;-1.07;59.35;101127.57;104304;1271;661954;-68
2022/03/13 07:13:37;;;;;;;8.60;4.30;;;;;;;-0.95;59.23;101124.67;104587;1271;60883;-68
2022/03/13 07:16:14;;;;;;;9.90;5.20;;;;;;;-0.86;58.91;101130.86;104709;1271;61598;-67
2022/03/13 07:18:44;;;;;;;10.10;5.20;;;;;;;-0.75;58.79;101131.77;105817;1271;74248;-69
2022/03/13 07:21:44;;;;;;;12.80;5.90;;;;;;;-0.63;58.59;101135.94;105716;1271;72439;-69
2022/03/13 07:24:14;;;;;;;14.10;7.30;;;;;;;-0.49;58.18;101136.17;105754;1271;75532;-70
2022/03/13 07:26:44;;;;;;;15.90;6.40;;;;;;;-0.37;58.88;101138.94;105708;1271;60443;-70
2022/03/13 07:29:19;;;;;;;12.60;6.30;;;;;;;-0.24;57.98;101137.61;105672;1270;60624;-70
2022/03/13 07:31:46;;;;;;;12.00;6.20;;;;;;;-0.10;57.71;101143.35;105760;1271;74629;-72
2022/03/13 07:34:13;;;;;;;12.80;5.70;;;;;;;0.04;56.91;101142.65;105637;1271;72550;-69
2022/03/13 07:36:45;;;;;;;16.30;6.10;;;;;;;0.19;56.41;101145.21;104842;1271;72915;-73
2022/03/13 07:39:14;;;;;;;18.30;8.00;;;;;;;0.34;55.23;101140.23;105746;1271;60527;-69
2022/03/13 07:41:40;;;;;;;13.70;7.00;;;;;;;0.50;54.95;101136.41;105726;1271;61612;-73
2022/03/13 07:44:10;;;;;;;12.70;6.50;;;;;;;0.66;54.66;101133.98;105652;1271;75126;-72
2022/03/13 07:46:38;;;;;;;13.10;6.50;;;;;;;0.83;54.32;101137.45;105749;1271;71725;-68
2022/03/13 07:49:10;;;;;;;10.40;5.60;;;;;;;0.96;53.71;101133.73;105888;1271;73757;-69
2022/03/13 07:51:38;;;;;;;10.60;5.20;;;;;;;1.09;52.89;101131.00;106586;1274;61417;-70
2022/03/13 07:54:23;;;;;;;10.00;6.30;;;;;;;1.21;52.28;101130.71;105726;1271;59910;-71
2022/03/13 07:56:53;;;;;;;9.50;4.90;;;;;;;1.35;51.91;101125.95;105672;1271;74161;-70
2022/03/13 07:59:22;;;;;;;11.30;6.00;;;;;;;1.46;51.06;101125.52;104801;1271;72557;-71
2022/03/13 08:01:50;;;;;;;11.10;5.80;;;;;;;1.58;50.55;101131.98;104777;1271;73388;-69
2022/03/13 08:04:17;;;;;;;12.70;6.40;;;;;;;1.73;50.32;101131.04;104913;1271;60529;-69
2022/03/13 08:06:44;;;;;;;13.00;6.00;;;;;;;1.86;49.89;101133.08;105689;1271;60449;-69
2022/03/13 08:09:11;;;;;;;14.70;7.00;;;;;;;1.98;48.58;101135.71;104656;1271;73036;-69
2022/03/13 08:11:38;;;;;;;14.60;7.10;;;;;;;2.11;48.73;101135.30;104752;1271;71377;-71
2022/03/13 08:14:10;;;;;;;12.20;6.30;;;;;;;2.26;48.67;101143.50;106154;1271;72615;-69
2022/03/13 08:16:36;;;;;;;17.70;7.90;;;;;;;2.39;48.30;101149.68;105770;1271;60407;-72
2022/03/13 08:19:06;;;;;;;14.50;6.80;;;;;;;2.52;48.09;101151.52;105544;1271;60508;-70
2022/03/13 08:21:36;;;;;;;14.00;8.50;;;;;;;2.64;47.52;101150.48;105827;1269;74260;-70
2022/03/13 08:24:15;;;;;;;12.40;7.30;;;;;;;2.78;47.72;101148.27;105886;1270;72399;-70
2022/03/13 08:26:42;;;;;;;13.60;7.20;;;;;;;2.94;47.35;101148.45;105728;1271;72938;-72
2022/03/13 08:29:10;;;;;;;13.70;7.40;;;;;;;3.08;46.85;101146.38;104726;1271;60830;-70
2022/03/13 08:31:38;;;;;;;14.10;7.20;;;;;;;3.22;46.59;101139.91;105731;1270;60726;-69
2022/03/13 08:34:07;;;;;;;12.00;5.10;;;;;;;3.35;45.66;101141.40;105808;1270;76231;-69
2022/03/13 08:36:38;;;;;;;12.30;5.90;;;;;;;3.45;44.88;101144.65;105822;1271;71562;-70
2022/03/13 08:39:06;;;;;;;11.10;6.60;;;;;;;3.56;44.14;101141.19;105615;1271;73018;-71
2022/03/13 08:42:10;;;;;;;11.80;6.30;;;;;;;3.68;43.95;101136.38;105712;1271;60869;-69
2022/03/13 08:44:35;;;;;;;14.30;6.30;;;;;;;3.85;44.37;101135.46;105513;1265;60530;-68
2022/03/13 08:47:02;;;;;;;12.40;5.90;;;;;;;3.99;43.57;101130.10;105292;1276;74178;-69
2022/03/13 08:49:30;;;;;;;13.10;5.00;;;;;;;4.12;42.97;101127.67;105312;1274;71505;-69
2022/03/13 08:51:56;;;;;;;12.60;5.90;;;;;;;4.23;41.55;101125.90;105183;1276;71319;-69
2022/03/13 08:54:23;;;;;;;12.80;5.70;;;;;;;4.36;41.82;101128.07;104658;1276;60686;-70
2022/03/13 08:56:53;;;;;;;11.60;5.50;;;;;;;4.51;41.90;101125.80;104308;1276;60857;-70
2022/03/13 08:59:20;;;;;;;15.40;5.40;;;;;;;4.67;41.65;101126.94;105230;1274;75269;-70
2022/03/13 09:01:48;;;;;;;10.90;6.10;;;;;;;4.81;40.76;101120.88;105239;1276;71356;-70
2022/03/13 09:04:18;;;;;;;13.40;6.00;;;;;;;4.91;40.32;101120.56;105224;1276;72916;-68
2022/03/13 09:06:46;;;;;;;14.70;6.70;;;;;;;5.00;39.53;101114.02;104653;1273;60788;-71
2022/03/13 09:09:13;;;;;;;11.00;5.90;;;;;;;5.13;39.73;101114.36;104425;1275;60677;-69
2022/03/13 09:11:40;;;;;;;10.80;5.50;;;;;;;5.23;39.36;101119.96;104372;1276;74308;-67
2022/03/13 09:14:09;;;;;;;12.30;6.20;;;;;;;5.35;39.18;101121.10;104580;1276;71320;-69
2022/03/13 09:16:38;;;;;;;13.60;6.20;;;;;;;5.44;38.74;101124.02;104226;1276;72980;-69
2022/03/13 09:19:05;;;;;;;12.10;5.30;;;;;;;5.54;38.50;101122.09;105082;1276;59531;-67
2022/03/13 09:22:01;;;;;;;9.50;5.70;;;;;;;5.66;38.28;101118.95;104430;1276;60568;-67
2022/03/13 09:24:32;;;;;;;12.00;5.10;;;;;;;5.82;38.26;101118.69;105937;1276;72574;-69
2022/03/13 09:26:58;;;;;;;11.30;5.40;;;;;;;5.97;38.28;101120.66;104220;1277;72414;-69
2022/03/13 09:29:25;;;;;;;12.80;4.90;;;;;;;6.15;37.83;101119.69;104230;1276;74325;-67
2022/03/13 09:31:54;;;;;;;9.50;4.80;;;;;;;6.29;37.04;101116.11;104530;1276;60446;-67
2022/03/13 09:34:21;;;;;;;12.30;5.10;;;;;;;6.42;36.87;101114.81;104383;1276;60615;-69
2022/03/13 09:36:48;;;;;;;9.80;4.30;;;;;;;6.57;37.24;101121.84;104351;1277;60555;-68
2022/03/13 09:39:14;;;;;;;11.10;5.30;;;;;;;6.73;36.54;101123.45;104287;1276;60569;-67
2022/03/13 09:41:42;;;;;;;7.20;4.40;;;;;;;6.83;35.13;101130.77;105160;1277;74124;-67
2022/03/13 09:44:09;;;;;;;9.50;5.20;;;;;;;6.90;34.86;101130.32;104584;1277;61108;-67
2022/03/13 09:46:45;;;;;;;10.70;5.10;;;;;;;6.99;35.35;101129.02;104358;1276;61040;-70
2022/03/13 09:49:16;;;;;;;8.30;5.30;;;;;;;7.10;35.80;101116.84;104508;1277;74112;-68
2022/03/13 09:51:44;;;;;;;10.20;5.50;;;;;;;7.22;34.75;101115.71;104313;1277;71376;-67
2022/03/13 09:54:12;;;;;;;9.50;6.10;;;;;;;7.36;34.50;101119.23;104616;1278;73905;-69
2022/03/13 09:56:39;;;;;;;9.40;6.00;;;;;;;7.51;34.65;101123.21;105108;1276;60555;-66
2022/03/13 09:59:06;;;;;;;12.50;5.70;;;;;;;7.68;34.50;101121.83;104201;1277;61955;-69
2022/03/13 10:01:33;;;;;;;15.10;5.70;;;;;;;7.81;33.73;101122.05;105106;1278;74318;-67
2022/03/13 10:04:20;;;;;;;13.40;5.70;;;;;;;7.89;33.69;101120.36;104382;1276;71213;-67
2022/03/13 10:07:07;;;;;;;13.60;5.40;;;;;;;8.00;33.39;101114.38;104974;1278;73673;-69
2022/03/13 10:09:35;;;;;;;17.70;6.70;;;;;;;8.09;33.26;101104.14;105044;1276;60589;-68
2022/03/13 10:12:03;;;;;;;11.60;5.10;;;;;;;8.18;33.58;101097.86;104965;1277;60856;-69
2022/03/13 10:14:30;;;;;;;13.70;5.90;;;;;;;8.29;33.55;101101.72;105171;1277;73912;-67
2022/03/13 10:16:57;;;;;;;10.00;5.40;;;;;;;8.40;33.16;101099.55;104256;1276;71482;-70
2022/03/13 10:19:37;;;;;;;14.80;6.10;;;;;;;8.47;32.67;101096.07;104271;1276;73880;-68
2022/03/13 10:22:07;;;;;;;10.40;5.90;;;;;;;8.60;32.86;101102.50;104496;1276;61222;-69
2022/03/13 10:24:42;;;;;;;7.80;4.90;;;;;;;8.69;32.86;101103.51;104462;1277;61613;-69
2022/03/13 10:27:11;;;;;;;9.50;5.50;;;;;;;8.79;33.17;101101.56;104157;1276;74579;-66
2022/03/13 10:29:42;;;;;;;9.20;5.20;;;;;;;8.94;33.41;101096.71;105399;1276;71874;-67
2022/03/13 10:32:09;;;;;;;10.80;5.10;;;;;;;9.10;33.22;101093.52;104606;1277;72096;-68
2022/03/13 10:34:37;;;;;;;8.10;4.90;;;;;;;9.24;32.86;101087.13;104413;1276;60640;-67
2022/03/13 10:37:05;;;;;;;11.40;5.50;;;;;;;9.38;31.92;101088.16;105083;1277;60626;-68
2022/03/13 10:39:34;;;;;;;13.60;6.10;;;;;;;9.46;32.10;101084.92;105145;1276;74134;-68
2022/03/13 10:42:16;;;;;;;11.70;5.20;;;;;;;9.55;31.77;101085.63;105306;1276;70343;-69
2022/03/13 10:44:52;;;;;;;10.40;4.70;;;;;;;9.63;31.42;101083.77;104386;1277;74139;-68
2022/03/13 10:47:25;;;;;;;9.50;5.20;;;;;;;9.66;31.39;101079.69;105220;1276;62934;-68
2022/03/13 10:49:53;;;;;;;11.80;5.70;;;;;;;9.73;31.38;101079.78;105164;1276;60563;-66
2022/03/13 10:52:25;;;;;;;8.30;4.80;;;;;;;9.83;31.92;101080.01;105045;1277;74287;-67
2022/03/13 10:54:53;;;;;;;9.10;5.30;;;;;;;9.93;31.05;101081.44;105218;1276;71667;-66
2022/03/13 10:57:20;;;;;;;12.60;5.70;;;;;;;10.04;31.74;101075.16;104276;1276;72939;-69
2022/03/13 11:00:09;;;;;;;11.20;5.50;;;;;;;10.17;32.02;101079.44;104369;1277;60521;-68
2022/03/13 11:02:36;;;;;;;11.90;5.90;;;;;;;10.32;32.16;101079.13;104409;1277;62294;-69
2022/03/13 11:05:05;;;;;;;10.10;5.60;;;;;;;10.46;31.90;101076.73;105143;1277;74141;-67
2022/03/13 11:07:32;;;;;;;9.70;5.50;;;;;;;10.59;30.91;101073.81;104426;1277;72331;-69
2022/03/13 11:10:07;;;;;;;8.40;5.00;;;;;;;10.69;31.01;101074.36;104425;1277;72233;-66
2022/03/13 11:12:38;;;;;;;8.00;4.90;;;;;;;10.77;30.74;101068.80;105197;1278;62741;-66
2022/03/13 11:15:09;;;;;;;9.60;5.60;;;;;;;10.87;30.98;101063.48;104640;1277;60594;-68
2022/03/13 11:17:37;;;;;;;9.90;4.60;;;;;;;11.00;30.62;101051.83;105189;1276;73707;-67
2022/03/13 11:20:13;;;;;;;9.60;5.80;;;;;;;11.06;29.31;101055.59;104366;1277;71539;-69
2022/03/13 11:22:40;;;;;;;7.60;4.50;;;;;;;11.16;30.51;101052.85;105228;1277;73053;-67
2022/03/13 11:25:08;;;;;;;9.90;5.70;;;;;;;11.32;30.87;101052.17;104266;1277;61575;-67
2022/03/13 11:27:37;;;;;;;9.50;5.30;;;;;;;11.47;30.46;101053.58;104745;1277;60610;-68
2022/03/13 11:30:06;;;;;;;8.80;5.50;;;;;;;11.54;29.96;101044.55;104457;1277;75361;-67
2022/03/13 11:32:46;;;;;;;9.30;5.00;;;;;;;11.61;29.93;101042.32;105155;1276;72424;-68
2022/03/13 11:35:14;;;;;;;11.80;5.40;;;;;;;11.69;29.52;101041.63;104700;1276;72617;-67
2022/03/13 11:37:46;;;;;;;10.60;6.60;;;;;;;11.80;30.06;101038.84;104448;1277;60456;-70